Time;durP1;ratioP1;P1;durP2;ratioP2;P2;SDS_P1;SDS_P2;PMS_P1;PMS_P2;Temp;Humidity;BMP_temperature;BMP_pressure;BME280_temperature;BME280_humidity;BME280_pressure;Samples;Min_cycle;Max_cycle;Signal;HPM_P1;HPM_P2
2022/10/24 00:01:51;;;;;;;7.77;2.40;;;16.40;99.90;;;;;;5113016;28;20496;-37
2022/10/24 00:04:16;;;;;;;7.00;2.70;;;16.50;99.90;;;;;;5112547;28;20454;-38
2022/10/24 00:06:42;;;;;;;6.57;2.00;;;16.50;99.90;;;;;;5112664;28;20842;-37
2022/10/24 00:09:08;;;;;;;4.40;2.33;;;16.50;99.90;;;;;;5112091;27;20697;-39
2022/10/24 00:11:34;;;;;;;5.13;2.70;;;16.50;99.90;;;;;;5112850;28;20552;-38
2022/10/24 00:13:59;;;;;;;3.27;2.30;;;16.50;99.90;;;;;;5112262;28;20920;-37
2022/10/24 00:16:26;;;;;;;3.90;2.60;;;16.50;99.90;;;;;;5112233;28;20418;-38
2022/10/24 00:18:52;;;;;;;9.57;2.90;;;16.50;99.90;;;;;;5112202;28;20180;-37
2022/10/24 00:21:18;;;;;;;5.13;3.13;;;16.50;99.90;;;;;;5112483;28;20421;-37
2022/10/24 00:23:45;;;;;;;7.27;2.37;;;16.50;99.90;;;;;;5112161;28;20449;-38
2022/10/24 00:26:11;;;;;;;10.03;3.77;;;16.50;99.90;;;;;;5112321;28;20184;-38
2022/10/24 00:28:37;;;;;;;5.00;3.07;;;16.50;99.90;;;;;;5112161;28;20472;-38
2022/10/24 00:31:05;;;;;;;10.83;3.60;;;16.50;99.90;;;;;;5112158;28;20406;-37
2022/10/24 00:33:31;;;;;;;5.50;2.97;;;16.60;99.90;;;;;;5112146;28;20884;-37
2022/10/24 00:35:56;;;;;;;8.43;3.37;;;16.60;99.90;;;;;;5112146;28;20390;-38
2022/10/24 00:38:22;;;;;;;5.30;2.90;;;16.50;99.90;;;;;;5111881;28;20417;-37
2022/10/24 00:40:48;;;;;;;8.23;3.70;;;16.50;99.90;;;;;;5112227;28;20203;-38
2022/10/24 00:43:19;;;;;;;10.13;3.30;;;16.50;99.90;;;;;;5111825;28;20594;-37
2022/10/24 00:45:53;;;;;;;8.27;3.50;;;16.50;99.90;;;;;;5112015;28;20186;-37
2022/10/24 00:48:27;;;;;;;9.17;3.83;;;16.60;99.90;;;;;;5110478;28;20481;-37
2022/10/24 00:50:57;;;;;;;5.93;3.50;;;16.60;99.90;;;;;;5111989;28;20462;-37
2022/10/24 00:53:24;;;;;;;6.47;3.80;;;16.60;99.90;;;;;;5111567;28;20406;-37
2022/10/24 00:55:55;;;;;;;16.03;4.83;;;16.70;99.90;;;;;;5110433;28;21053;-37
2022/10/24 00:58:24;;;;;;;8.33;3.60;;;16.70;99.90;;;;;;5111611;28;20408;-37
2022/10/24 01:00:50;;;;;;;6.53;4.00;;;16.70;99.90;;;;;;5110444;28;20409;-37
2022/10/24 01:03:16;;;;;;;7.47;3.40;;;16.70;99.90;;;;;;5111124;28;20482;-37
2022/10/24 01:06:05;;;;;;;6.00;3.50;;;16.60;99.90;;;;;;5111689;28;20244;-38
2022/10/24 01:08:46;;;;;;;6.10;3.10;;;16.70;99.90;;;;;;5072585;28;20457;-38
2022/10/24 01:11:26;;;;;;;6.37;3.30;;;16.70;99.90;;;;;;5111522;28;20402;-38
2022/10/24 01:14:12;;;;;;;3.43;2.37;;;16.80;99.90;;;;;;5111015;28;20417;-37
2022/10/24 01:16:49;;;;;;;7.13;2.73;;;16.80;99.90;;;;;;5111523;28;20490;-38
2022/10/24 01:19:49;;;;;;;5.80;3.03;;;16.90;99.90;;;;;;5111039;28;20496;-37
2022/10/24 01:22:21;;;;;;;5.70;2.87;;;16.90;99.90;;;;;;5091103;28;20410;-37
2022/10/24 01:24:47;;;;;;;8.90;2.80;;;16.90;99.90;;;;;;5090765;28;20406;-38
2022/10/24 01:27:18;;;;;;;6.87;2.53;;;16.90;99.90;;;;;;5090854;28;20402;-38
2022/10/24 01:30:06;;;;;;;7.70;2.80;;;16.90;99.90;;;;;;5089617;28;20206;-37
2022/10/24 01:33:02;;;;;;;3.73;2.17;;;17.00;99.90;;;;;;5090690;28;20418;-38
2022/10/24 01:36:09;;;;;;;3.23;2.13;;;17.00;99.90;;;;;;5090537;28;20403;-40
2022/10/24 01:38:44;;;;;;;4.83;2.53;;;17.00;99.90;;;;;;5090384;28;20410;-37
2022/10/24 01:41:18;;;;;;;4.77;2.47;;;17.10;99.90;;;;;;5089258;28;20421;-38
2022/10/24 01:43:54;;;;;;;6.30;2.30;;;17.10;99.90;;;;;;5090514;28;20452;-38
2022/10/24 01:46:24;;;;;;;4.30;2.17;;;17.10;99.90;;;;;;5090466;28;20495;-37
2022/10/24 01:48:57;;;;;;;5.00;3.03;;;17.10;99.90;;;;;;5090108;28;20508;-38
2022/10/24 01:51:27;;;;;;;6.00;2.50;;;17.10;99.90;;;;;;5090150;28;20479;-37
2022/10/24 01:53:54;;;;;;;5.23;2.70;;;17.20;99.90;;;;;;5090259;28;20403;-38
2022/10/24 01:56:20;;;;;;;4.53;2.30;;;17.20;99.90;;;;;;5088694;28;20406;-40
2022/10/24 01:58:45;;;;;;;4.40;2.13;;;17.20;99.90;;;;;;5089874;28;20421;-38
2022/10/24 02:01:16;;;;;;;5.00;2.73;;;17.10;99.90;;;;;;5090343;28;20212;-38
2022/10/24 02:03:48;;;;;;;5.47;2.00;;;17.20;99.90;;;;;;5089750;28;20181;-38
2022/10/24 02:06:28;;;;;;;5.47;2.33;;;17.20;99.90;;;;;;5090138;28;20431;-38
2022/10/24 02:09:04;;;;;;;6.53;2.47;;;17.20;99.90;;;;;;5089703;28;20483;-37
2022/10/24 02:11:33;;;;;;;7.00;2.63;;;17.10;99.90;;;;;;5090227;28;20406;-38
2022/10/24 02:14:08;;;;;;;3.50;2.23;;;17.10;99.90;;;;;;5089526;28;20524;-37
2022/10/24 02:16:34;;;;;;;5.70;2.30;;;17.10;99.90;;;;;;5090243;28;20402;-37
2022/10/24 02:18:59;;;;;;;3.77;3.07;;;17.10;99.90;;;;;;5089862;28;20406;-37
2022/10/24 02:21:49;;;;;;;6.90;2.83;;;17.20;99.90;;;;;;5104992;28;20241;-38
2022/10/24 02:24:27;;;;;;;5.13;2.30;;;17.10;99.90;;;;;;5110229;28;20194;-39
2022/10/24 02:27:22;;;;;;;5.10;2.30;;;17.20;99.90;;;;;;5110350;28;20918;-37
2022/10/24 02:29:58;;;;;;;4.23;2.20;;;17.20;99.90;;;;;;5109954;28;20425;-39
2022/10/24 02:32:34;;;;;;;4.13;2.30;;;17.20;99.90;;;;;;5110100;28;20402;-37
2022/10/24 02:35:00;;;;;;;7.00;3.17;;;17.10;99.90;;;;;;5110057;28;20397;-38
2022/10/24 02:37:29;;;;;;;6.80;1.90;;;17.10;99.90;;;;;;5110330;28;21025;-38
2022/10/24 02:39:56;;;;;;;5.40;2.03;;;17.10;99.90;;;;;;5110986;28;20569;-37
2022/10/24 02:42:24;;;;;;;7.27;2.07;;;17.20;99.90;;;;;;5114129;28;21122;-38
2022/10/24 02:44:49;;;;;;;4.90;2.20;;;17.20;99.90;;;;;;5114344;27;20410;-37
2022/10/24 02:47:18;;;;;;;5.67;2.73;;;17.20;99.90;;;;;;5113826;28;20463;-37
2022/10/24 02:49:44;;;;;;;5.53;2.10;;;17.30;99.90;;;;;;5113189;28;20959;-37
2022/10/24 02:52:10;;;;;;;4.70;2.20;;;17.30;99.90;;;;;;5113623;28;20464;-37
2022/10/24 02:54:35;;;;;;;5.50;1.93;;;17.30;99.90;;;;;;5114062;28;20515;-38
2022/10/24 02:57:03;;;;;;;3.50;1.80;;;17.30;99.90;;;;;;5112492;28;20176;-37
2022/10/24 02:59:29;;;;;;;5.43;1.90;;;17.20;99.90;;;;;;5113730;28;20238;-38
2022/10/24 03:01:55;;;;;;;4.93;2.00;;;17.30;99.90;;;;;;5113857;28;21132;-37
2022/10/24 03:04:21;;;;;;;3.47;1.90;;;17.30;99.90;;;;;;5112161;28;20447;-37
2022/10/24 03:06:46;;;;;;;11.10;1.97;;;17.30;99.90;;;;;;5113827;28;20790;-38
2022/10/24 03:09:12;;;;;;;3.27;2.00;;;17.40;99.90;;;;;;5113318;28;20233;-38
2022/10/24 03:11:38;;;;;;;3.37;2.23;;;17.40;99.90;;;;;;5113965;28;20606;-38
2022/10/24 03:14:04;;;;;;;4.33;2.00;;;17.40;99.90;;;;;;5113498;28;20191;-39
2022/10/24 03:16:30;;;;;;;5.47;2.30;;;17.40;99.90;;;;;;5113704;28;20615;-37
2022/10/24 03:18:56;;;;;;;5.10;2.13;;;17.50;99.90;;;;;;5112003;28;20504;-38
2022/10/24 03:21:21;;;;;;;4.63;2.20;;;17.50;99.90;;;;;;5113516;28;20180;-37
2022/10/24 03:23:48;;;;;;;3.40;1.97;;;17.50;99.90;;;;;;5113497;28;20191;-38
2022/10/24 03:26:13;;;;;;;8.83;2.37;;;17.50;99.90;;;;;;5113399;28;20228;-38
2022/10/24 03:28:39;;;;;;;5.47;2.00;;;17.50;99.90;;;;;;5113270;28;20573;-37
2022/10/24 03:31:05;;;;;;;5.23;2.17;;;17.50;99.90;;;;;;5113026;28;20184;-38
2022/10/24 03:33:31;;;;;;;4.07;1.90;;;17.50;99.90;;;;;;5113185;28;21038;-38
2022/10/24 03:35:56;;;;;;;3.53;1.90;;;17.50;99.90;;;;;;5113337;28;20256;-39
2022/10/24 03:38:22;;;;;;;3.10;2.03;;;17.50;99.90;;;;;;5113185;28;20410;-39
2022/10/24 03:40:49;;;;;;;4.43;2.47;;;17.50;99.90;;;;;;5113272;28;20207;-38
2022/10/24 03:43:15;;;;;;;7.13;2.07;;;17.50;99.90;;;;;;5112917;28;20187;-38
2022/10/24 03:45:40;;;;;;;4.90;1.97;;;17.50;99.90;;;;;;5112974;28;20414;-38
2022/10/24 03:48:06;;;;;;;5.30;2.00;;;17.40;99.90;;;;;;5111609;28;20480;-37
2022/10/24 03:50:33;;;;;;;3.27;1.87;;;17.40;99.90;;;;;;5111611;28;20259;-38
2022/10/24 03:52:59;;;;;;;6.83;2.33;;;17.40;99.90;;;;;;5110382;28;20168;-37
2022/10/24 03:55:26;;;;;;;3.77;3.00;;;17.40;99.90;;;;;;5111520;28;20485;-38
2022/10/24 03:57:52;;;;;;;5.47;1.87;;;17.40;99.90;;;;;;5112735;28;20416;-39
2022/10/24 04:00:18;;;;;;;4.67;2.30;;;17.40;99.90;;;;;;5110958;28;21026;-38
2022/10/24 04:02:45;;;;;;;9.10;2.53;;;17.40;99.90;;;;;;5111366;28;20198;-38
2022/10/24 04:05:11;;;;;;;4.33;2.10;;;17.40;99.90;;;;;;5112644;28;20922;-37
2022/10/24 04:07:36;;;;;;;9.23;2.10;;;17.40;99.90;;;;;;5111499;28;20457;-39
2022/10/24 04:10:03;;;;;;;4.40;2.17;;;17.40;99.90;;;;;;5112257;28;20952;-37
2022/10/24 04:12:28;;;;;;;4.20;2.37;;;17.40;99.90;;;;;;5112555;28;20180;-38
2022/10/24 04:14:54;;;;;;;3.37;1.77;;;17.30;99.90;;;;;;5112149;28;20478;-37
2022/10/24 04:17:20;;;;;;;4.43;1.90;;;17.20;99.90;;;;;;5112642;28;20574;-38
2022/10/24 04:19:45;;;;;;;6.10;2.13;;;17.30;99.90;;;;;;5110761;28;20559;-39
2022/10/24 04:22:11;;;;;;;8.33;2.43;;;17.30;99.90;;;;;;5111327;28;20184;-37
2022/10/24 04:24:38;;;;;;;4.43;2.17;;;17.20;99.90;;;;;;5112188;28;20176;-38
2022/10/24 04:27:05;;;;;;;3.10;1.97;;;17.30;99.90;;;;;;5111211;28;20485;-38
2022/10/24 04:29:31;;;;;;;5.00;2.13;;;17.30;99.90;;;;;;5111599;28;20457;-38
2022/10/24 04:31:56;;;;;;;4.77;1.87;;;17.30;99.90;;;;;;5112426;28;20871;-39
2022/10/24 04:34:22;;;;;;;4.20;2.20;;;17.20;99.90;;;;;;5110850;28;20180;-38
2022/10/24 04:36:47;;;;;;;4.80;2.00;;;17.20;99.90;;;;;;5112149;28;20216;-38
2022/10/24 04:39:13;;;;;;;3.70;2.07;;;17.20;99.90;;;;;;5110818;28;20717;-38
2022/10/24 04:41:39;;;;;;;3.20;1.97;;;17.20;99.90;;;;;;5111936;28;20262;-37
2022/10/24 04:44:04;;;;;;;6.00;1.90;;;17.30;99.90;;;;;;5111684;28;20180;-37
2022/10/24 04:46:30;;;;;;;4.63;1.90;;;17.20;99.90;;;;;;5111986;28;20215;-38
2022/10/24 04:48:56;;;;;;;5.63;2.20;;;17.20;99.90;;;;;;5111674;28;21004;-37
2022/10/24 04:51:22;;;;;;;6.60;2.20;;;17.20;99.90;;;;;;5111886;28;20504;-38
2022/10/24 04:53:48;;;;;;;3.90;1.93;;;17.20;99.90;;;;;;5111597;28;20176;-38
2022/10/24 04:56:14;;;;;;;3.43;2.10;;;17.20;99.90;;;;;;5110359;28;20993;-37
2022/10/24 04:58:39;;;;;;;4.53;2.20;;;17.10;99.90;;;;;;5111122;28;20417;-37
2022/10/24 05:01:05;;;;;;;3.17;1.83;;;17.10;99.90;;;;;;5111819;28;20266;-38
2022/10/24 05:03:31;;;;;;;4.20;1.80;;;17.10;99.90;;;;;;5111478;28;20267;-38
2022/10/24 05:05:56;;;;;;;3.23;1.73;;;17.10;99.90;;;;;;5111452;28;20335;-37
2022/10/24 05:08:22;;;;;;;3.70;2.17;;;17.10;99.90;;;;;;5111313;28;20207;-37
2022/10/24 05:10:48;;;;;;;2.83;1.60;;;17.10;99.90;;;;;;5093174;28;20556;-38
2022/10/24 05:13:13;;;;;;;2.07;1.53;;;17.10;99.90;;;;;;5111000;28;20179;-38
2022/10/24 05:15:39;;;;;;;6.27;2.33;;;17.10;99.90;;;;;;5111357;28;20270;-38
2022/10/24 05:18:05;;;;;;;2.57;2.07;;;17.10;99.90;;;;;;5111580;28;20240;-37
2022/10/24 05:20:31;;;;;;;5.13;2.03;;;17.10;99.90;;;;;;5110865;28;20854;-38
2022/10/24 05:22:56;;;;;;;3.53;2.00;;;17.10;99.90;;;;;;5109828;28;20760;-37
2022/10/24 05:25:22;;;;;;;4.57;2.20;;;17.00;99.90;;;;;;5111022;28;20188;-38
2022/10/24 05:27:48;;;;;;;6.80;1.90;;;17.00;99.90;;;;;;5110941;28;20207;-38
2022/10/24 05:30:14;;;;;;;2.63;1.80;;;17.00;99.90;;;;;;5110609;28;20183;-38
2022/10/24 05:32:40;;;;;;;4.47;1.70;;;17.00;99.90;;;;;;5111066;28;20678;-37
2022/10/24 05:35:07;;;;;;;6.97;1.83;;;17.00;99.90;;;;;;5109803;28;20413;-37
2022/10/24 05:37:32;;;;;;;3.73;1.60;;;17.00;99.90;;;;;;5110946;28;20414;-38
2022/10/24 05:39:58;;;;;;;4.70;1.73;;;17.00;99.90;;;;;;5109362;28;20466;-38
2022/10/24 05:42:23;;;;;;;3.73;1.70;;;17.00;99.90;;;;;;5110482;28;20183;-38
2022/10/24 05:44:49;;;;;;;3.30;1.80;;;16.90;99.90;;;;;;5111102;28;20180;-38
2022/10/24 05:47:15;;;;;;;6.77;1.70;;;16.90;99.90;;;;;;5110842;28;20179;-37
2022/10/24 05:49:40;;;;;;;4.20;1.80;;;16.90;99.90;;;;;;5110657;28;20225;-38
2022/10/24 05:52:06;;;;;;;6.67;2.70;;;16.90;99.90;;;;;;5110597;28;20204;-38
2022/10/24 05:54:32;;;;;;;3.70;1.87;;;16.90;99.90;;;;;;5110465;28;20681;-38
2022/10/24 05:56:57;;;;;;;4.13;1.83;;;16.90;99.90;;;;;;5108905;28;20176;-38
2022/10/24 05:59:23;;;;;;;3.07;1.43;;;16.90;99.90;;;;;;5110458;28;20175;-37
2022/10/24 06:01:49;;;;;;;7.07;1.60;;;16.90;99.90;;;;;;5110735;28;20187;-38
2022/10/24 06:04:15;;;;;;;6.03;2.60;;;16.90;99.90;;;;;;5110290;28;20183;-37
2022/10/24 06:06:43;;;;;;;5.50;1.40;;;16.90;99.90;;;;;;5110426;28;20700;-37
2022/10/24 06:09:10;;;;;;;5.70;1.40;;;16.90;99.90;;;;;;5109995;28;20242;-39
2022/10/24 06:11:36;;;;;;;4.60;1.60;;;16.90;99.90;;;;;;5110330;28;20409;-38
2022/10/24 06:14:02;;;;;;;4.90;1.50;;;16.90;99.90;;;;;;5110257;28;20903;-37
2022/10/24 06:16:29;;;;;;;3.47;1.63;;;16.90;99.90;;;;;;5110273;28;20233;-38
2022/10/24 06:18:56;;;;;;;4.90;1.70;;;16.80;99.90;;;;;;5108766;28;20493;-38
2022/10/24 06:21:21;;;;;;;4.00;1.50;;;16.80;99.90;;;;;;5109074;28;20418;-37
2022/10/24 06:23:47;;;;;;;4.30;1.40;;;16.90;99.90;;;;;;5109007;28;20424;-38
2022/10/24 06:26:13;;;;;;;4.83;1.70;;;16.90;99.90;;;;;;5108748;28;20195;-38
2022/10/24 06:28:40;;;;;;;2.67;1.33;;;16.90;99.90;;;;;;5108666;28;20207;-38
2022/10/24 06:31:07;;;;;;;10.97;2.00;;;16.90;99.90;;;;;;5110219;28;20895;-38
2022/10/24 06:33:32;;;;;;;3.90;1.07;;;16.80;99.90;;;;;;5108816;28;20414;-38
2022/10/24 06:36:00;;;;;;;5.33;1.40;;;16.90;99.90;;;;;;5110308;28;20496;-38
2022/10/24 06:38:26;;;;;;;2.30;1.20;;;16.90;99.90;;;;;;5108701;28;20186;-38
2022/10/24 06:40:52;;;;;;;7.23;1.10;;;16.80;99.90;;;;;;5109859;28;20783;-37
2022/10/24 06:43:18;;;;;;;3.47;1.17;;;16.80;99.90;;;;;;5109885;28;20410;-38
2022/10/24 06:45:44;;;;;;;3.20;1.40;;;16.90;99.90;;;;;;5108958;28;20670;-38
2022/10/24 06:48:10;;;;;;;2.27;1.20;;;16.90;99.90;;;;;;5110066;28;20458;-38
2022/10/24 06:50:39;;;;;;;2.77;1.20;;;16.90;99.90;;;;;;5108652;28;20413;-38
2022/10/24 06:53:08;;;;;;;3.00;1.50;;;16.90;99.90;;;;;;5108417;28;20406;-37
2022/10/24 06:55:36;;;;;;;3.00;1.47;;;16.90;99.90;;;;;;5108116;28;20416;-38
2022/10/24 06:58:03;;;;;;;3.40;2.43;;;16.90;99.90;;;;;;5109801;28;20417;-38
2022/10/24 07:00:29;;;;;;;5.70;1.23;;;16.90;99.90;;;;;;5108344;28;20915;-39
2022/10/24 07:02:55;;;;;;;3.03;1.07;;;16.90;99.90;;;;;;5109817;28;20422;-37
2022/10/24 07:05:20;;;;;;;7.23;1.23;;;16.90;99.90;;;;;;5110068;28;20199;-37
2022/10/24 07:07:46;;;;;;;4.17;1.03;;;16.90;99.90;;;;;;5109673;28;20207;-38
2022/10/24 07:10:13;;;;;;;5.40;1.83;;;16.90;99.90;;;;;;5109739;28;20199;-38
2022/10/24 07:12:39;;;;;;;2.20;1.63;;;16.90;99.90;;;;;;5109702;28;20176;-38
2022/10/24 07:15:05;;;;;;;1.93;1.10;;;16.90;99.90;;;;;;5109843;28;20453;-38
2022/10/24 07:17:36;;;;;;;2.20;1.03;;;16.90;99.90;;;;;;5108666;28;20420;-38
2022/10/24 07:20:02;;;;;;;1.80;1.13;;;16.90;99.90;;;;;;5109402;28;20424;-37
2022/10/24 07:22:28;;;;;;;6.07;1.30;;;17.00;99.90;;;;;;5109491;28;20410;-38
2022/10/24 07:24:55;;;;;;;4.97;1.80;;;17.10;99.90;;;;;;5109710;28;20183;-38
2022/10/24 07:27:22;;;;;;;7.13;1.97;;;17.10;99.90;;;;;;5111377;28;20176;-39
2022/10/24 07:29:47;;;;;;;4.80;1.10;;;17.20;99.90;;;;;;5113214;28;20410;-38
2022/10/24 07:32:13;;;;;;;8.60;1.57;;;17.20;99.90;;;;;;5113475;28;20921;-39
2022/10/24 07:34:40;;;;;;;3.53;1.23;;;17.30;99.90;;;;;;5113158;28;20642;-38
2022/10/24 07:37:05;;;;;;;4.37;1.37;;;17.30;99.90;;;;;;5111558;28;20172;-37
2022/10/24 07:39:31;;;;;;;2.30;1.20;;;17.30;99.90;;;;;;5112156;28;20548;-38
2022/10/24 07:41:57;;;;;;;3.03;1.10;;;17.40;99.90;;;;;;5113333;28;20236;-38
2022/10/24 07:44:23;;;;;;;3.90;2.03;;;17.50;99.90;;;;;;5113057;28;20406;-38
2022/10/24 07:46:49;;;;;;;3.30;1.40;;;17.60;99.90;;;;;;5113178;28;20414;-38
2022/10/24 07:49:14;;;;;;;2.87;1.10;;;17.70;99.90;;;;;;5113030;28;20264;-38
2022/10/24 07:51:41;;;;;;;4.20;1.47;;;17.80;99.90;;;;;;5112641;28;20176;-37
2022/10/24 07:54:07;;;;;;;4.60;1.33;;;17.80;99.90;;;;;;5112802;28;20184;-38
2022/10/24 07:56:33;;;;;;;2.40;1.50;;;17.80;99.90;;;;;;5112073;28;20410;-39
2022/10/24 07:59:00;;;;;;;2.40;1.53;;;18.10;99.90;;;;;;5112638;28;20462;-38
2022/10/24 08:01:27;;;;;;;5.10;1.27;;;18.20;99.90;;;;;;5112752;28;20183;-38
2022/10/24 08:03:53;;;;;;;2.70;1.30;;;18.30;99.90;;;;;;5112701;28;21038;-39
2022/10/24 08:06:22;;;;;;;2.40;1.50;;;18.30;99.90;;;;;;5094262;28;20556;-37
2022/10/24 08:08:47;;;;;;;4.10;1.90;;;18.10;99.90;;;;;;5112625;28;20471;-37
2022/10/24 08:11:16;;;;;;;4.50;1.87;;;18.00;99.90;;;;;;5112782;28;20414;-38
2022/10/24 08:13:41;;;;;;;2.27;1.30;;;18.00;99.90;;;;;;5112318;28;20266;-38
2022/10/24 08:16:10;;;;;;;5.20;1.50;;;18.00;99.90;;;;;;5112852;28;20507;-38
2022/10/24 08:18:36;;;;;;;4.93;1.23;;;18.10;99.90;;;;;;5112010;28;20172;-38
2022/10/24 08:21:04;;;;;;;3.77;1.50;;;18.10;99.90;;;;;;5112529;28;20410;-38
2022/10/24 08:23:32;;;;;;;2.40;1.40;;;18.10;99.90;;;;;;5112148;28;20741;-38
2022/10/24 08:25:57;;;;;;;3.77;1.40;;;18.20;99.90;;;;;;5112552;28;20424;-38
2022/10/24 08:28:23;;;;;;;3.50;1.30;;;18.10;99.90;;;;;;5111931;28;21062;-37
2022/10/24 08:31:00;;;;;;;2.90;1.37;;;18.10;99.90;;;;;;5112392;28;20549;-38
2022/10/24 08:33:26;;;;;;;3.60;1.40;;;18.00;99.90;;;;;;5111831;28;20526;-38
2022/10/24 08:35:55;;;;;;;3.63;1.20;;;18.10;99.90;;;;;;5112320;28;20798;-40
2022/10/24 08:38:21;;;;;;;4.20;1.77;;;18.10;99.90;;;;;;5111981;28;20406;-38
2022/10/24 08:40:48;;;;;;;3.60;1.67;;;18.10;99.90;;;;;;5111815;28;20428;-38
2022/10/24 08:43:15;;;;;;;3.60;1.20;;;18.20;99.90;;;;;;5111959;28;20186;-38
2022/10/24 08:46:05;;;;;;;1.77;1.00;;;18.20;99.90;;;;;;5111787;28;20414;-39
2022/10/24 08:48:42;;;;;;;6.10;1.43;;;18.20;99.90;;;;;;5111642;28;20545;-38
2022/10/24 08:51:45;;;;;;;5.50;1.63;;;18.10;99.90;;;;;;5111772;27;20397;-38
2022/10/24 08:54:21;;;;;;;7.60;1.47;;;18.00;99.90;;;;;;5109267;28;20958;-38
2022/10/24 08:56:47;;;;;;;4.37;1.40;;;17.90;99.90;;;;;;5110933;28;20414;-38
2022/10/24 08:59:13;;;;;;;6.93;1.67;;;17.90;99.90;;;;;;5111502;28;20455;-40
2022/10/24 09:01:50;;;;;;;3.93;1.13;;;17.90;99.90;;;;;;5110418;28;20421;-38
2022/10/24 09:04:19;;;;;;;5.73;2.17;;;17.80;99.90;;;;;;5110366;28;20187;-38
2022/10/24 09:06:46;;;;;;;3.83;1.27;;;17.80;99.90;;;;;;5111266;28;20505;-38
2022/10/24 09:09:28;;;;;;;5.30;1.50;;;17.70;99.90;;;;;;5111187;28;20445;-37
2022/10/24 09:11:55;;;;;;;4.27;1.40;;;17.60;99.90;;;;;;5111524;28;20406;-37
2022/10/24 09:14:32;;;;;;;3.00;1.30;;;17.60;99.90;;;;;;5092971;28;20409;-37
2022/10/24 09:17:01;;;;;;;6.77;1.70;;;17.60;99.90;;;;;;5111132;28;20405;-37
2022/10/24 09:19:29;;;;;;;3.47;1.43;;;17.60;99.90;;;;;;5111014;28;20418;-38
2022/10/24 09:21:57;;;;;;;6.27;1.63;;;17.60;99.90;;;;;;5109907;28;20426;-38
2022/10/24 09:24:47;;;;;;;4.30;1.40;;;17.50;99.90;;;;;;5109745;28;20412;-40
2022/10/24 09:27:20;;;;;;;1.87;1.10;;;17.50;99.90;;;;;;5111079;28;20406;-38
2022/10/24 09:29:46;;;;;;;4.30;1.63;;;17.50;99.90;;;;;;5110892;28;20422;-38
2022/10/24 09:32:19;;;;;;;6.50;1.40;;;17.50;99.90;;;;;;5111098;28;20422;-37
2022/10/24 09:34:45;;;;;;;6.70;1.80;;;17.40;99.90;;;;;;5110905;28;20501;-40
2022/10/24 09:37:35;;;;;;;3.20;1.13;;;17.40;99.90;;;;;;5111133;28;20445;-38
2022/10/24 09:40:22;;;;;;;3.87;1.37;;;17.40;99.90;;;;;;5110556;28;20397;-39
2022/10/24 09:42:52;;;;;;;3.73;1.20;;;17.50;99.90;;;;;;5110706;28;20414;-40
2022/10/24 09:45:40;;;;;;;3.10;0.90;;;17.50;99.90;;;;;;5109587;28;20418;-39
2022/10/24 09:48:18;;;;;;;5.20;1.80;;;17.50;99.90;;;;;;5110911;28;20449;-38
2022/10/24 09:50:46;;;;;;;4.03;1.07;;;17.50;99.90;;;;;;5109619;28;20402;-37
2022/10/24 09:53:38;;;;;;;8.80;1.50;;;17.40;99.90;;;;;;5110645;28;20412;-38
2022/10/24 09:56:12;;;;;;;6.07;1.63;;;17.40;99.90;;;;;;5109878;28;20406;-38
2022/10/24 09:58:38;;;;;;;5.87;1.80;;;17.40;99.90;;;;;;5110268;28;20512;-38
2022/10/24 10:01:15;;;;;;;4.53;1.17;;;17.40;99.90;;;;;;5110688;28;20516;-39
2022/10/24 10:03:41;;;;;;;2.90;1.33;;;17.40;99.90;;;;;;5110467;28;20184;-38
2022/10/24 10:06:17;;;;;;;7.93;1.40;;;17.40;99.90;;;;;;5110359;28;20440;-40
2022/10/24 10:08:52;;;;;;;5.23;1.23;;;17.40;99.90;;;;;;5089751;28;20493;-38
2022/10/24 10:11:30;;;;;;;4.00;1.20;;;17.50;99.90;;;;;;5089836;28;20420;-38
2022/10/24 10:13:59;;;;;;;3.50;1.20;;;17.50;99.90;;;;;;5090197;28;20417;-39
2022/10/24 10:16:27;;;;;;;3.40;1.33;;;17.50;99.90;;;;;;5090035;28;20421;-38
2022/10/24 10:19:16;;;;;;;4.83;1.13;;;17.50;99.90;;;;;;5089853;28;20422;-37
2022/10/24 10:22:03;;;;;;;3.53;1.30;;;17.50;99.90;;;;;;5089651;28;21302;-38
2022/10/24 10:24:34;;;;;;;3.30;1.33;;;17.70;99.90;;;;;;5089808;28;20421;-39
2022/10/24 10:27:01;;;;;;;4.37;1.53;;;17.70;99.90;;;;;;5089941;28;20410;-38
2022/10/24 10:29:26;;;;;;;3.47;1.40;;;17.70;99.90;;;;;;5088294;28;20808;-38
2022/10/24 10:32:21;;;;;;;4.03;1.63;;;17.70;99.90;;;;;;5089725;28;20462;-38
2022/10/24 10:34:58;;;;;;;4.33;2.00;;;17.70;99.90;;;;;;5088680;28;20254;-38
2022/10/24 10:37:27;;;;;;;3.50;1.10;;;17.70;99.90;;;;;;5089925;28;20417;-38
2022/10/24 10:40:12;;;;;;;5.73;1.77;;;17.70;99.90;;;;;;5088424;28;20407;-38
2022/10/24 10:43:05;;;;;;;4.60;1.37;;;17.70;99.90;;;;;;5088154;28;20415;-38
2022/10/24 10:45:41;;;;;;;4.30;1.70;;;17.70;99.90;;;;;;5089910;28;20411;-37
2022/10/24 10:48:09;;;;;;;5.23;2.03;;;17.70;99.90;;;;;;5089763;28;20849;-37
2022/10/24 10:51:02;;;;;;;5.20;1.43;;;17.70;99.90;;;;;;5089447;28;20410;-37
2022/10/24 10:53:49;;;;;;;5.10;1.57;;;17.70;99.90;;;;;;5088608;28;20406;-38
2022/10/24 10:56:20;;;;;;;3.80;1.27;;;17.70;99.90;;;;;;5086306;28;20403;-39
2022/10/24 10:59:07;;;;;;;8.87;2.07;;;17.60;99.90;;;;;;5087759;28;20455;-39
2022/10/24 11:01:56;;;;;;;3.67;1.20;;;17.70;99.90;;;;;;5091882;28;20528;-39
2022/10/24 11:04:50;;;;;;;5.43;1.27;;;17.70;99.90;;;;;;5092023;28;20422;-39
2022/10/24 11:07:23;;;;;;;3.90;1.67;;;17.60;99.90;;;;;;5076183;28;20438;-38
2022/10/24 11:09:52;;;;;;;5.23;1.70;;;17.60;99.90;;;;;;5091884;28;20418;-38
2022/10/24 11:12:27;;;;;;;6.40;1.30;;;17.60;99.90;;;;;;5092354;28;20459;-38
2022/10/24 11:15:19;;;;;;;6.73;2.27;;;17.60;99.90;;;;;;5092143;28;20440;-38
2022/10/24 11:17:49;;;;;;;11.50;2.20;;;17.60;99.90;;;;;;5093403;28;20476;-38
2022/10/24 11:20:27;;;;;;;3.60;1.30;;;17.60;99.90;;;;;;5093149;28;20475;-38
2022/10/24 11:22:56;;;;;;;8.37;1.60;;;17.60;99.90;;;;;;5093148;28;20519;-38
2022/10/24 11:25:26;;;;;;;4.50;1.50;;;17.50;99.90;;;;;;5093286;28;20403;-38
2022/10/24 11:28:01;;;;;;;3.77;1.17;;;17.50;99.90;;;;;;5093178;28;20473;-39
2022/10/24 11:31:22;;;;;;;2.90;1.17;;;17.40;99.90;;;;;;5092508;28;20759;-38
2022/10/24 11:34:12;;;;;;;4.00;1.40;;;17.50;99.90;;;;;;5086132;28;20472;-38
2022/10/24 11:37:01;;;;;;;5.00;1.63;;;17.50;99.90;;;;;;5092788;28;20759;-37
2022/10/24 11:40:09;;;;;;;5.30;1.37;;;17.40;99.90;;;;;;5092695;28;20429;-38
2022/10/24 11:42:56;;;;;;;5.80;1.73;;;17.40;99.90;;;;;;5092700;28;20414;-38
2022/10/24 11:45:30;;;;;;;4.50;1.90;;;17.50;99.90;;;;;;5092992;28;20411;-38
2022/10/24 11:48:17;;;;;;;8.10;2.17;;;17.50;99.90;;;;;;5092699;28;20456;-39
2022/10/24 11:51:21;;;;;;;4.10;1.27;;;17.50;99.90;;;;;;5092505;28;20442;-38
2022/10/24 11:54:15;;;;;;;5.63;1.70;;;17.50;99.90;;;;;;5092495;28;20414;-39
2022/10/24 11:56:43;;;;;;;6.03;1.63;;;17.50;99.90;;;;;;5091661;28;20502;-39
2022/10/24 11:59:17;;;;;;;7.73;1.43;;;17.50;99.90;;;;;;5092068;28;20411;-38
2022/10/24 12:01:50;;;;;;;5.50;1.47;;;17.50;99.90;;;;;;5091257;28;20464;-38
2022/10/24 12:04:57;;;;;;;5.77;1.53;;;17.50;99.90;;;;;;5092196;28;20418;-38
2022/10/24 12:08:00;;;;;;;6.90;1.80;;;17.50;99.90;;;;;;5092303;28;20440;-38
2022/10/24 12:10:57;;;;;;;6.67;1.27;;;17.50;99.90;;;;;;5092070;28;20414;-38
2022/10/24 12:13:50;;;;;;;5.23;1.97;;;17.50;99.90;;;;;;5091356;28;20481;-37
2022/10/24 12:16:34;;;;;;;7.07;1.70;;;17.40;99.90;;;;;;5070372;28;20501;-39
2022/10/24 12:19:09;;;;;;;6.50;1.17;;;17.40;99.90;;;;;;5091904;28;20406;-39
2022/10/24 12:21:39;;;;;;;4.23;1.33;;;17.40;99.90;;;;;;5092273;28;20426;-38
2022/10/24 12:24:18;;;;;;;4.20;1.60;;;17.40;99.90;;;;;;5091718;28;20430;-38
2022/10/24 12:27:01;;;;;;;2.87;1.27;;;17.50;99.90;;;;;;5092038;28;20418;-37
2022/10/24 12:29:30;;;;;;;3.83;1.20;;;17.40;99.90;;;;;;5090414;28;21033;-39
2022/10/24 12:31:57;;;;;;;4.47;1.60;;;17.40;99.90;;;;;;5092131;28;21180;-40
2022/10/24 12:34:23;;;;;;;5.17;1.23;;;17.40;99.90;;;;;;5090628;28;20436;-37
2022/10/24 12:37:03;;;;;;;7.33;1.53;;;17.40;99.90;;;;;;5091795;28;21272;-38
2022/10/24 12:39:35;;;;;;;5.80;2.60;;;17.30;99.90;;;;;;5091652;28;20422;-38
2022/10/24 12:42:01;;;;;;;5.17;1.70;;;17.30;99.90;;;;;;5090407;28;20447;-37
2022/10/24 12:44:32;;;;;;;4.80;1.70;;;17.30;99.90;;;;;;5091432;28;20458;-40
2022/10/24 12:47:19;;;;;;;4.63;1.83;;;17.20;99.90;;;;;;5091495;28;20184;-38
2022/10/24 12:49:45;;;;;;;5.00;1.33;;;17.20;99.90;;;;;;5049157;28;20466;-39
2022/10/24 12:52:29;;;;;;;8.40;2.30;;;17.20;99.90;;;;;;5091493;28;20418;-38
2022/10/24 12:54:56;;;;;;;2.93;1.70;;;17.30;99.90;;;;;;5090717;28;20568;-38
2022/10/24 12:57:38;;;;;;;6.07;2.00;;;17.30;99.90;;;;;;5091222;28;20494;-40
2022/10/24 13:00:22;;;;;;;6.23;1.80;;;17.20;99.90;;;;;;5089708;28;20415;-38
2022/10/24 13:02:54;;;;;;;3.53;1.47;;;17.20;99.90;;;;;;5090960;28;20437;-37
2022/10/24 13:05:51;;;;;;;5.03;1.50;;;17.20;99.90;;;;;;5091347;28;20415;-39
2022/10/24 13:08:29;;;;;;;6.60;1.67;;;17.20;99.90;;;;;;5045743;28;20526;-41